createdAt,value
2022-08-09T00:00:35.562Z,17.60
2022-08-09T00:04:05.589Z,17.50
2022-08-09T00:06:17.860Z,17.50
2022-08-09T00:08:57.517Z,17.50
2022-08-09T00:12:04.010Z,17.40
2022-08-09T00:14:36.253Z,17.40
2022-08-09T00:18:05.488Z,17.40
2022-08-09T00:20:06.096Z,17.40
2022-08-09T00:22:42.151Z,17.32
2022-08-09T00:25:23.269Z,17.30
2022-08-09T00:27:59.808Z,17.30
2022-08-09T00:30:33.864Z,17.28
2022-08-09T00:33:07.260Z,17.20
2022-08-09T00:35:42.949Z,17.20
2022-08-09T00:38:17.219Z,17.20
2022-08-09T00:40:55.814Z,17.20
2022-08-09T00:44:16.464Z,17.20
2022-08-09T00:46:55.240Z,17.30
2022-08-09T00:49:16.534Z,17.40
2022-08-09T00:51:56.048Z,17.40
2022-08-09T00:54:31.624Z,17.40
2022-08-09T00:57:10.582Z,17.20
2022-08-09T00:59:52.485Z,17.20
2022-08-09T01:02:32.530Z,17.10
2022-08-09T01:05:22.174Z,17.10
2022-08-09T01:08:04.496Z,17.14
2022-08-09T01:10:51.160Z,17.20
2022-08-09T01:13:58.517Z,17.20
2022-08-09T01:16:47.285Z,17.10
2022-08-09T01:19:51.668Z,17.10
2022-08-09T01:23:12.279Z,17.04
2022-08-09T01:26:22.677Z,17.10
2022-08-09T01:29:06.635Z,17.10
2022-08-09T01:32:31.324Z,17.16
2022-08-09T01:34:39.424Z,17.30
2022-08-09T01:37:21.770Z,17.30
2022-08-09T01:40:23.335Z,17.30
2022-08-09T01:43:03.207Z,17.30
2022-08-09T01:45:44.834Z,17.20
2022-08-09T01:48:29.493Z,17.20
2022-08-09T01:51:04.677Z,17.10
2022-08-09T01:53:41.141Z,17.00
2022-08-09T01:56:18.124Z,16.90
2022-08-09T01:58:53.794Z,16.80
2022-08-09T02:01:58.224Z,16.76
2022-08-09T02:04:25.941Z,16.70
2022-08-09T02:07:18.026Z,16.70
2022-08-09T02:10:12.559Z,16.70
2022-08-09T02:12:48.234Z,16.70
2022-08-09T02:15:26.945Z,16.80
2022-08-09T02:18:10.933Z,16.88
2022-08-09T02:20:53.705Z,16.90
2022-08-09T02:23:43.283Z,17.00
2022-08-09T02:26:25.047Z,17.00
2022-08-09T02:29:07.784Z,17.02
2022-08-09T02:31:48.188Z,17.10
2022-08-09T02:34:40.660Z,17.10
2022-08-09T02:37:31.860Z,17.20
2022-08-09T02:40:24.979Z,17.20
2022-08-09T02:43:04.747Z,17.30
2022-08-09T02:45:45.930Z,17.30
2022-08-09T02:48:31.228Z,17.30
2022-08-09T02:51:07.580Z,17.30
2022-08-09T02:53:59.669Z,17.22
2022-08-09T02:56:37.210Z,17.20
2022-08-09T02:59:26.328Z,17.20
2022-08-09T03:02:16.770Z,17.20
2022-08-09T03:04:51.090Z,17.28
2022-08-09T03:07:25.892Z,17.30
2022-08-09T03:10:01.487Z,17.38
2022-08-09T03:12:38.524Z,17.40
2022-08-09T03:15:15.196Z,17.40
2022-08-09T03:17:57.842Z,17.40
2022-08-09T03:20:33.197Z,17.30
2022-08-09T03:23:14.516Z,17.20
2022-08-09T03:25:58.034Z,17.20
2022-08-09T03:28:39.913Z,17.06
2022-08-09T03:31:22.518Z,17.00
2022-08-09T03:33:58.708Z,17.04
2022-08-09T03:36:33.087Z,17.10
2022-08-09T03:39:07.760Z,17.00
2022-08-09T03:41:45.816Z,16.90
2022-08-09T03:44:22.658Z,16.90
2022-08-09T03:47:05.331Z,16.90
2022-08-09T03:50:04.347Z,16.90
2022-08-09T03:52:43.537Z,17.00
2022-08-09T03:55:20.750Z,16.90
2022-08-09T03:58:06.404Z,16.90
2022-08-09T04:00:45.373Z,16.90
2022-08-09T04:03:35.510Z,16.90
2022-08-09T04:06:13.552Z,17.00
2022-08-09T04:08:47.435Z,17.02
2022-08-09T04:11:27.387Z,17.08
2022-08-09T04:14:53.981Z,17.10
2022-08-09T04:16:54.096Z,17.10
2022-08-09T04:19:42.843Z,17.20
2022-08-09T04:22:24.811Z,17.20
2022-08-09T04:25:03.046Z,17.20
2022-08-09T04:27:41.589Z,17.14
2022-08-09T04:30:23.310Z,17.10
2022-08-09T04:33:01.272Z,17.20
2022-08-09T04:35:34.741Z,17.20
2022-08-09T04:38:08.795Z,17.30
2022-08-09T04:40:56.148Z,17.40
2022-08-09T04:43:30.469Z,17.48
2022-08-09T04:46:19.287Z,17.50
2022-08-09T04:49:04.679Z,17.52
2022-08-09T04:51:39.137Z,17.60
2022-08-09T04:54:13.488Z,17.60
2022-08-09T04:56:47.015Z,17.70
2022-08-09T04:59:21.125Z,17.70
2022-08-09T05:01:56.128Z,17.76
2022-08-09T05:04:31.100Z,17.80
2022-08-09T05:07:04.946Z,17.90
2022-08-09T05:09:42.288Z,18.00
2022-08-09T05:12:23.679Z,18.10
2022-08-09T05:14:56.983Z,18.14
2022-08-09T05:18:39.818Z,18.20
2022-08-09T05:20:29.838Z,18.30
2022-08-09T05:23:53.557Z,18.40
2022-08-09T05:25:58.487Z,18.50
2022-08-09T05:28:34.661Z,18.60
2022-08-09T05:31:09.677Z,18.70
2022-08-09T05:33:43.491Z,18.72
2022-08-09T05:36:17.220Z,18.84
2022-08-09T05:38:54.832Z,18.98
2022-08-09T05:41:29.264Z,19.10
2022-08-09T05:44:07.153Z,19.20
2022-08-09T05:46:42.632Z,19.20
2022-08-09T05:50:24.108Z,19.30
2022-08-09T05:52:17.305Z,19.40
2022-08-09T05:54:51.760Z,19.50
2022-08-09T05:57:56.032Z,19.50
2022-08-09T06:00:20.107Z,19.60
2022-08-09T06:02:54.414Z,19.70
2022-08-09T06:05:57.053Z,19.80
2022-08-09T06:08:29.916Z,19.90
2022-08-09T06:11:17.301Z,20.00
2022-08-09T06:13:56.221Z,20.10
2022-08-09T06:16:29.802Z,20.28
2022-08-09T06:19:15.485Z,20.32
2022-08-09T06:21:50.492Z,20.40
2022-08-09T06:24:25.732Z,20.50
2022-08-09T06:26:59.120Z,20.50
2022-08-09T06:29:32.431Z,20.60
2022-08-09T06:32:59.458Z,20.68
2022-08-09T06:35:15.479Z,20.70
2022-08-09T06:37:53.275Z,20.80
2022-08-09T06:40:39.618Z,20.88
2022-08-09T06:43:15.352Z,20.92
2022-08-09T06:46:04.934Z,21.02
2022-08-09T06:48:42.980Z,21.16
2022-08-09T06:51:17.182Z,21.26
2022-08-09T06:53:50.797Z,21.30
2022-08-09T06:56:30.570Z,21.40
2022-08-09T07:00:52.912Z,21.50
2022-08-09T07:02:03.584Z,21.60
2022-08-09T07:04:37.449Z,21.70
2022-08-09T07:07:11.943Z,21.80
2022-08-09T07:10:17.949Z,21.90
2022-08-09T07:12:57.112Z,21.90
2022-08-09T07:15:54.014Z,22.00
2022-08-09T07:18:24.612Z,22.08
2022-08-09T07:20:59.647Z,22.10
2022-08-09T07:23:35.986Z,22.20
2022-08-09T07:26:10.267Z,22.20
2022-08-09T07:29:08.527Z,22.30
2022-08-09T07:31:38.225Z,22.48
2022-08-09T07:34:19.321Z,22.62
2022-08-09T07:36:53.991Z,22.80
2022-08-09T07:39:41.360Z,22.90
2022-08-09T07:42:15.698Z,23.06
2022-08-09T07:44:54.614Z,23.20
2022-08-09T07:47:29.884Z,23.30
2022-08-09T07:50:35.010Z,23.40
2022-08-09T07:53:10.907Z,23.50
2022-08-09T07:56:03.139Z,23.60
2022-08-09T07:58:38.008Z,23.70
2022-08-09T08:01:12.009Z,23.80
2022-08-09T08:03:47.242Z,23.88
2022-08-09T08:06:22.406Z,24.00
2022-08-09T08:09:18.844Z,24.10
2022-08-09T08:12:10.640Z,24.20
2022-08-09T08:14:52.640Z,24.40
2022-08-09T08:17:52.544Z,24.60
2022-08-09T08:20:30.356Z,24.70
2022-08-09T08:23:16.858Z,24.80
2022-08-09T08:25:54.174Z,24.80
2022-08-09T08:28:40.121Z,24.90
2022-08-09T08:31:15.184Z,24.92
2022-08-09T08:33:52.501Z,25.00
2022-08-09T08:36:30.582Z,25.10
2022-08-09T08:39:05.164Z,25.30
2022-08-09T08:41:50.254Z,25.46
2022-08-09T08:44:29.001Z,25.56
2022-08-09T08:47:12.013Z,25.60
2022-08-09T08:49:48.961Z,25.70
2022-08-09T08:52:58.450Z,25.80
2022-08-09T08:55:23.197Z,26.02
2022-08-09T08:57:58.360Z,26.28
2022-08-09T09:00:34.331Z,26.40
2022-08-09T09:03:22.608Z,26.44
2022-08-09T09:06:04.753Z,26.54
2022-08-09T09:08:42.730Z,26.70
2022-08-09T09:11:19.797Z,26.90
2022-08-09T09:13:59.204Z,27.10
2022-08-09T09:16:36.723Z,27.20
2022-08-09T09:22:11.645Z,27.34
2022-08-09T09:24:48.206Z,27.50
2022-08-09T09:28:06.183Z,27.70
2022-08-09T09:33:17.857Z,27.94
2022-08-09T09:36:11.699Z,28.00
2022-08-09T09:38:58.198Z,28.16
2022-08-09T09:41:39.968Z,28.30
2022-08-09T09:44:32.773Z,28.40
2022-08-09T09:47:16.488Z,28.50
2022-08-09T09:50:14.755Z,28.60
2022-08-09T09:52:57.599Z,28.64
2022-08-09T09:55:33.271Z,28.76
2022-08-09T09:58:16.696Z,28.82
2022-08-09T10:00:59.087Z,28.90
2022-08-09T10:03:57.004Z,28.90
2022-08-09T10:06:42.431Z,29.00
2022-08-09T10:10:23.259Z,28.90
2022-08-09T10:13:10.016Z,29.00
2022-08-09T10:16:54.967Z,29.00
2022-08-09T10:18:56.383Z,28.90
2022-08-09T10:21:35.912Z,28.80
2022-08-09T10:24:15.947Z,28.70
2022-08-09T10:27:00.722Z,28.60
2022-08-09T10:30:49.412Z,28.50
2022-08-09T10:32:48.414Z,28.48
2022-08-09T10:35:22.365Z,28.50
2022-08-09T10:37:57.464Z,28.40
2022-08-09T10:40:53.584Z,28.30
2022-08-09T10:43:46.734Z,28.32
2022-08-09T10:47:00.822Z,28.50
2022-08-09T10:49:54.264Z,28.50
2022-08-09T10:52:51.588Z,28.30
2022-08-09T10:55:49.348Z,28.30
2022-08-09T10:58:37.500Z,28.30
2022-08-09T11:03:11.076Z,28.40
2022-08-09T11:04:37.167Z,28.50
2022-08-09T11:07:56.934Z,28.50
2022-08-09T11:11:00.784Z,28.50
2022-08-09T11:13:50.041Z,28.54
2022-08-09T11:16:41.772Z,28.60
2022-08-09T11:19:15.224Z,28.70
2022-08-09T11:22:10.456Z,28.76
2022-08-09T11:25:13.228Z,28.84
2022-08-09T11:28:05.077Z,28.80
2022-08-09T11:30:48.079Z,28.80
2022-08-09T11:33:40.206Z,28.70
2022-08-09T11:36:30.657Z,28.80
2022-08-09T11:39:11.115Z,28.90
2022-08-09T11:41:45.213Z,29.00
2022-08-09T11:44:18.529Z,29.10
2022-08-09T11:47:01.010Z,29.20
2022-08-09T11:50:55.503Z,29.30
2022-08-09T11:53:59.407Z,29.50
2022-08-09T11:56:41.989Z,29.64
2022-08-09T11:59:33.936Z,29.74
2022-08-09T12:02:18.351Z,29.82
2022-08-09T12:05:17.653Z,30.00
2022-08-09T12:07:57.655Z,30.20
2022-08-09T12:10:39.841Z,30.82
2022-08-09T12:14:07.540Z,32.24
2022-08-09T12:16:11.904Z,33.62
2022-08-09T12:19:05.811Z,35.22
2022-08-09T12:21:48.708Z,36.66
2022-08-09T12:24:28.173Z,37.94
2022-08-09T12:29:11.901Z,39.16
2022-08-09T12:30:36.532Z,40.40
2022-08-09T12:33:19.687Z,41.46
2022-08-09T12:36:27.319Z,42.58
2022-08-09T12:39:14.689Z,43.36
2022-08-09T12:41:48.294Z,44.12
2022-08-09T12:44:24.642Z,44.60
2022-08-09T12:46:58.509Z,44.86
2022-08-09T12:49:33.680Z,43.84
2022-08-09T12:52:10.314Z,43.24
2022-08-09T12:55:03.290Z,44.30
2022-08-09T12:57:50.681Z,45.40
2022-08-09T13:00:29.552Z,45.58
2022-08-09T13:03:06.403Z,44.14
2022-08-09T13:05:52.364Z,44.66
2022-08-09T13:09:01.084Z,45.48
2022-08-09T13:11:39.187Z,46.30
2022-08-09T13:14:42.916Z,46.80
2022-08-09T13:17:21.927Z,47.42
2022-08-09T13:20:22.725Z,47.88
2022-08-09T13:23:04.858Z,48.50
2022-08-09T13:25:53.256Z,48.76
2022-08-09T13:28:34.347Z,49.20
2022-08-09T13:32:15.628Z,49.54
2022-08-09T13:34:07.457Z,47.44
2022-08-09T13:36:43.410Z,46.50
2022-08-09T13:41:56.539Z,45.52
2022-08-09T13:42:13.767Z,43.88
2022-08-09T13:44:48.504Z,42.44
2022-08-09T13:47:31.427Z,41.20
2022-08-09T13:50:30.254Z,39.66
2022-08-09T13:53:04.899Z,38.30
2022-08-09T13:55:41.155Z,37.10
2022-08-09T13:58:18.098Z,36.04
2022-08-09T14:00:52.987Z,35.04
2022-08-09T14:04:02.931Z,34.20
2022-08-09T14:06:26.787Z,33.40
2022-08-09T14:09:02.913Z,32.84
2022-08-09T14:11:47.295Z,32.36
2022-08-09T14:14:24.119Z,31.90
2022-08-09T14:17:00.755Z,31.50
2022-08-09T14:19:34.887Z,31.30
2022-08-09T14:22:09.430Z,31.00
2022-08-09T14:24:46.962Z,30.90
2022-08-09T14:27:27.428Z,30.90
2022-08-09T14:30:34.382Z,31.14
2022-08-09T14:33:08.339Z,31.56
2022-08-09T14:35:52.742Z,32.52
2022-08-09T14:38:26.773Z,35.40
2022-08-09T14:41:01.878Z,36.02
2022-08-09T14:43:47.835Z,35.72
2022-08-09T14:46:55.819Z,35.28
2022-08-09T14:49:23.738Z,34.90
2022-08-09T15:47:14.294Z,40.78
2022-08-09T15:50:04.191Z,42.40
2022-08-09T16:11:18.891Z,41.24
2022-08-09T16:14:03.450Z,41.50
2022-08-09T16:16:41.912Z,41.30
2022-08-09T16:19:20.272Z,41.10
2022-08-09T16:21:56.621Z,41.10
2022-08-09T16:24:33.505Z,40.70
2022-08-09T16:27:07.969Z,40.50
2022-08-09T16:29:50.071Z,40.30
2022-08-09T16:32:49.565Z,40.10
2022-08-09T16:35:52.990Z,39.90
2022-08-09T16:38:20.621Z,39.60
2022-08-09T16:40:56.145Z,39.18
2022-08-09T16:43:29.745Z,38.80
2022-08-09T16:46:03.458Z,38.32
2022-08-09T16:48:50.990Z,38.00
2022-08-09T16:51:29.394Z,37.72
2022-08-09T16:54:28.293Z,37.70
2022-08-09T16:56:58.318Z,37.50
2022-08-09T16:59:34.727Z,37.10
2022-08-09T17:02:08.398Z,36.52
2022-08-09T17:04:44.994Z,35.70
2022-08-09T17:08:45.642Z,34.80
2022-08-09T17:10:17.823Z,33.94
2022-08-09T17:12:55.381Z,33.18
2022-08-09T17:15:59.396Z,32.48
2022-08-09T17:18:26.896Z,31.80
2022-08-09T17:21:04.308Z,31.18
2022-08-09T17:24:27.411Z,30.62
2022-08-09T17:26:38.324Z,30.00
2022-08-09T17:29:20.412Z,29.60
2022-08-09T17:31:54.804Z,29.10
2022-08-09T17:35:10.541Z,28.70
2022-08-09T17:38:02.290Z,28.30
2022-08-09T17:40:27.579Z,27.90
2022-08-09T17:43:32.973Z,27.70
2022-08-09T17:46:03.231Z,27.34
2022-08-09T17:48:52.071Z,27.04
2022-08-09T17:51:26.176Z,26.80
2022-08-09T17:54:06.643Z,26.60
2022-08-09T17:56:48.629Z,26.34
2022-08-09T17:59:26.464Z,26.10
2022-08-09T18:02:21.510Z,25.90
2022-08-09T18:05:13.151Z,25.70
2022-08-09T18:07:53.253Z,25.60
2022-08-09T19:52:13.133Z,22.74
2022-08-09T19:54:48.096Z,22.70
2022-08-09T19:57:25.631Z,22.42
2022-08-09T20:00:07.392Z,22.20
2022-08-09T20:04:12.488Z,22.00
2022-08-09T20:05:46.962Z,21.90
2022-08-09T20:08:25.016Z,21.80
2022-08-09T20:11:08.661Z,21.60
2022-08-09T20:13:42.339Z,21.50
2022-08-09T20:16:37.074Z,21.40
2022-08-09T20:19:49.276Z,21.30
2022-08-09T20:22:15.070Z,21.20
2022-08-09T20:24:51.869Z,21.10
2022-08-09T20:27:29.133Z,21.00
2022-08-09T20:30:02.936Z,20.90
2022-08-09T20:32:37.817Z,20.80
2022-08-09T20:35:14.111Z,20.70
2022-08-09T20:38:23.902Z,20.70
2022-08-09T20:40:42.618Z,20.60
2022-08-09T20:43:24.743Z,20.54
2022-08-09T20:46:15.270Z,20.50
2022-08-09T20:48:50.769Z,20.40
2022-08-09T20:51:28.270Z,20.40
2022-08-09T20:54:03.786Z,20.30
2022-08-09T20:56:38.378Z,20.30
2022-08-09T20:59:17.299Z,20.20
2022-08-09T21:01:53.671Z,20.20
2022-08-09T21:05:50.883Z,20.10
2022-08-09T21:07:20.922Z,20.10
2022-08-09T21:10:02.208Z,20.10
2022-08-09T21:12:40.170Z,20.10
2022-08-09T21:15:23.743Z,20.00
2022-08-09T21:18:23.093Z,20.00
2022-08-09T21:20:59.216Z,19.90
2022-08-09T21:23:47.729Z,19.90
2022-08-09T21:26:24.750Z,19.80
2022-08-09T21:28:58.065Z,19.72
2022-08-09T21:31:48.234Z,19.70
2022-08-09T21:34:29.684Z,19.60
2022-08-09T21:37:02.985Z,19.60
2022-08-09T21:39:42.432Z,19.52
2022-08-09T21:42:16.384Z,19.50
2022-08-09T21:44:49.745Z,19.50
2022-08-09T21:47:23.552Z,19.40
2022-08-09T21:49:57.272Z,19.40
2022-08-09T21:52:30.579Z,19.40
2022-08-09T21:55:04.874Z,19.30
2022-08-09T21:57:59.535Z,19.30
2022-08-09T22:00:36.516Z,19.30
2022-08-09T22:03:12.598Z,19.28
2022-08-09T22:05:53.155Z,19.20
2022-08-09T22:08:28.231Z,19.20
2022-08-09T22:12:06.516Z,19.20
2022-08-09T22:13:55.398Z,19.24
2022-08-09T22:16:37.087Z,19.30
2022-08-09T22:19:23.842Z,19.30
2022-08-09T22:22:04.428Z,19.30
2022-08-09T22:24:38.065Z,19.30
2022-08-09T22:27:31.842Z,19.22
2022-08-09T22:30:15.617Z,19.28
2022-08-09T22:33:03.071Z,19.30
2022-08-09T22:36:02.879Z,19.30
2022-08-09T22:38:35.365Z,19.30
2022-08-09T22:41:17.050Z,19.20
2022-08-09T22:44:07.086Z,19.18
2022-08-09T22:48:13.942Z,19.10
2022-08-09T22:49:41.105Z,19.08
2022-08-09T22:52:15.636Z,19.00
2022-08-09T22:54:49.639Z,18.90
2022-08-09T22:57:22.802Z,18.90
2022-08-09T23:00:13.322Z,18.80
2022-08-09T23:02:47.882Z,18.80
2022-08-09T23:05:21.201Z,18.80
2022-08-09T23:08:27.662Z,18.80
2022-08-09T23:11:03.218Z,18.80
2022-08-09T23:13:36.697Z,18.70
2022-08-09T23:16:10.574Z,18.70
2022-08-09T23:18:45.519Z,18.60
2022-08-09T23:21:23.917Z,18.58
2022-08-09T23:24:06.117Z,18.50
2022-08-09T23:26:41.847Z,18.50
2022-08-09T23:29:15.775Z,18.40
2022-08-09T23:31:53.815Z,18.40
2022-08-09T23:34:27.756Z,18.30
2022-08-09T23:37:01.251Z,18.30
2022-08-09T23:39:34.756Z,18.30
2022-08-09T23:42:08.459Z,18.40
2022-08-09T23:44:41.668Z,18.40
2022-08-09T23:47:14.946Z,18.40
2022-08-09T23:49:48.275Z,18.40
2022-08-09T23:52:24.508Z,18.36
2022-08-09T23:54:57.890Z,18.30
2022-08-09T23:57:31.126Z,18.30
